sensor_id;sensor_type;location;lat;lon;timestamp;P1;durP1;ratioP1;P2;durP2;ratioP2
26965;SDS011;14522;52.068;4.414;2024-02-21T00:00:27;16.02;;;2.47;;
26965;SDS011;14522;52.068;4.414;2024-02-21T00:02:54;17.65;;;3.92;;
26965;SDS011;14522;52.068;4.414;2024-02-21T00:05:22;12.27;;;2.40;;
26965;SDS011;14522;52.068;4.414;2024-02-21T00:07:49;16.98;;;2.67;;
26965;SDS011;14522;52.068;4.414;2024-02-21T00:10:15;15.35;;;2.30;;
26965;SDS011;14522;52.068;4.414;2024-02-21T00:12:42;13.93;;;2.20;;
26965;SDS011;14522;52.068;4.414;2024-02-21T00:15:08;14.40;;;2.30;;
26965;SDS011;14522;52.068;4.414;2024-02-21T00:17:35;14.18;;;2.15;;
26965;SDS011;14522;52.068;4.414;2024-02-21T00:20:01;5.13;;;1.17;;
26965;SDS011;14522;52.068;4.414;2024-02-21T00:22:28;11.65;;;2.45;;
26965;SDS011;14522;52.068;4.414;2024-02-21T00:24:57;17.30;;;2.47;;
26965;SDS011;14522;52.068;4.414;2024-02-21T00:27:24;17.58;;;2.25;;
26965;SDS011;14522;52.068;4.414;2024-02-21T00:29:50;14.82;;;2.30;;
26965;SDS011;14522;52.068;4.414;2024-02-21T00:32:17;12.45;;;1.80;;
26965;SDS011;14522;52.068;4.414;2024-02-21T00:34:43;15.90;;;2.47;;
26965;SDS011;14522;52.068;4.414;2024-02-21T00:37:10;12.50;;;2.13;;
26965;SDS011;14522;52.068;4.414;2024-02-21T00:39:36;15.85;;;2.50;;
26965;SDS011;14522;52.068;4.414;2024-02-21T00:42:03;14.80;;;2.10;;
26965;SDS011;14522;52.068;4.414;2024-02-21T00:44:30;17.70;;;2.75;;
26965;SDS011;14522;52.068;4.414;2024-02-21T00:46:56;12.95;;;2.53;;
26965;SDS011;14522;52.068;4.414;2024-02-21T00:49:23;14.27;;;2.22;;
26965;SDS011;14522;52.068;4.414;2024-02-21T00:51:49;14.25;;;1.98;;
26965;SDS011;14522;52.068;4.414;2024-02-21T00:54:16;13.63;;;2.17;;
26965;SDS011;14522;52.068;4.414;2024-02-21T00:56:42;12.02;;;1.90;;
26965;SDS011;14522;52.068;4.414;2024-02-21T00:59:09;16.40;;;2.42;;
26965;SDS011;14522;52.068;4.414;2024-02-21T01:01:35;14.55;;;2.20;;
26965;SDS011;14522;52.068;4.414;2024-02-21T01:04:02;12.60;;;1.75;;
26965;SDS011;14522;52.068;4.414;2024-02-21T01:06:28;17.40;;;2.22;;
26965;SDS011;14522;52.068;4.414;2024-02-21T01:08:55;13.48;;;1.90;;
26965;SDS011;14522;52.068;4.414;2024-02-21T01:11:21;15.75;;;2.05;;
26965;SDS011;14522;52.068;4.414;2024-02-21T01:13:47;11.63;;;2.03;;
26965;SDS011;14522;52.068;4.414;2024-02-21T01:16:14;22.65;;;3.03;;
26965;SDS011;14522;52.068;4.414;2024-02-21T01:18:40;9.63;;;1.60;;
26965;SDS011;14522;52.068;4.414;2024-02-21T01:21:07;14.38;;;2.00;;
26965;SDS011;14522;52.068;4.414;2024-02-21T01:23:34;17.42;;;1.85;;
26965;SDS011;14522;52.068;4.414;2024-02-21T01:26:01;16.30;;;2.42;;
26965;SDS011;14522;52.068;4.414;2024-02-21T01:28:28;8.95;;;1.98;;
26965;SDS011;14522;52.068;4.414;2024-02-21T01:30:54;12.77;;;2.70;;
26965;SDS011;14522;52.068;4.414;2024-02-21T01:33:21;13.80;;;1.75;;
26965;SDS011;14522;52.068;4.414;2024-02-21T01:35:47;19.17;;;3.38;;
26965;SDS011;14522;52.068;4.414;2024-02-21T01:38:14;14.82;;;2.67;;
26965;SDS011;14522;52.068;4.414;2024-02-21T01:40:40;15.50;;;2.38;;
26965;SDS011;14522;52.068;4.414;2024-02-21T01:43:17;17.63;;;2.30;;
26965;SDS011;14522;52.068;4.414;2024-02-21T01:45:47;11.73;;;2.20;;
26965;SDS011;14522;52.068;4.414;2024-02-21T01:48:14;12.68;;;2.03;;
26965;SDS011;14522;52.068;4.414;2024-02-21T01:50:41;22.02;;;2.63;;
26965;SDS011;14522;52.068;4.414;2024-02-21T01:53:08;11.82;;;2.50;;
26965;SDS011;14522;52.068;4.414;2024-02-21T01:55:35;11.93;;;2.40;;
26965;SDS011;14522;52.068;4.414;2024-02-21T01:58:01;10.55;;;1.85;;
26965;SDS011;14522;52.068;4.414;2024-02-21T02:00:28;24.08;;;3.20;;
26965;SDS011;14522;52.068;4.414;2024-02-21T02:02:54;11.70;;;1.95;;
26965;SDS011;14522;52.068;4.414;2024-02-21T02:05:22;15.48;;;2.47;;
26965;SDS011;14522;52.068;4.414;2024-02-21T02:07:48;17.92;;;2.30;;
26965;SDS011;14522;52.068;4.414;2024-02-21T02:10:15;17.38;;;2.53;;
26965;SDS011;14522;52.068;4.414;2024-02-21T02:12:41;22.30;;;2.63;;
26965;SDS011;14522;52.068;4.414;2024-02-21T02:15:08;17.77;;;2.20;;
26965;SDS011;14522;52.068;4.414;2024-02-21T02:17:34;12.80;;;2.05;;
26965;SDS011;14522;52.068;4.414;2024-02-21T02:20:01;11.52;;;1.85;;
26965;SDS011;14522;52.068;4.414;2024-02-21T02:22:28;11.15;;;2.25;;
26965;SDS011;14522;52.068;4.414;2024-02-21T02:24:55;12.57;;;1.85;;
26965;SDS011;14522;52.068;4.414;2024-02-21T02:27:21;16.20;;;2.00;;
26965;SDS011;14522;52.068;4.414;2024-02-21T02:29:49;16.08;;;2.03;;
26965;SDS011;14522;52.068;4.414;2024-02-21T02:32:15;14.30;;;2.10;;
26965;SDS011;14522;52.068;4.414;2024-02-21T02:34:42;18.10;;;2.60;;
26965;SDS011;14522;52.068;4.414;2024-02-21T02:37:09;10.70;;;2.35;;
26965;SDS011;14522;52.068;4.414;2024-02-21T02:39:35;13.80;;;2.00;;
26965;SDS011;14522;52.068;4.414;2024-02-21T02:42:01;17.05;;;2.10;;
26965;SDS011;14522;52.068;4.414;2024-02-21T02:44:28;13.40;;;1.92;;
26965;SDS011;14522;52.068;4.414;2024-02-21T02:46:54;14.40;;;2.10;;
26965;SDS011;14522;52.068;4.414;2024-02-21T02:49:21;13.38;;;2.97;;
26965;SDS011;14522;52.068;4.414;2024-02-21T02:51:47;15.90;;;2.65;;
26965;SDS011;14522;52.068;4.414;2024-02-21T02:54:14;11.77;;;2.10;;
26965;SDS011;14522;52.068;4.414;2024-02-21T02:56:40;11.18;;;1.58;;
26965;SDS011;14522;52.068;4.414;2024-02-21T02:59:07;12.98;;;2.17;;
26965;SDS011;14522;52.068;4.414;2024-02-21T03:01:34;18.42;;;2.70;;
26965;SDS011;14522;52.068;4.414;2024-02-21T03:04:00;13.88;;;2.58;;
26965;SDS011;14522;52.068;4.414;2024-02-21T03:06:27;8.07;;;1.88;;
26965;SDS011;14522;52.068;4.414;2024-02-21T03:08:53;13.25;;;2.20;;
26965;SDS011;14522;52.068;4.414;2024-02-21T03:11:21;12.00;;;2.10;;
26965;SDS011;14522;52.068;4.414;2024-02-21T03:13:55;11.05;;;2.97;;
26965;SDS011;14522;52.068;4.414;2024-02-21T03:16:23;10.23;;;2.10;;
26965;SDS011;14522;52.068;4.414;2024-02-21T03:18:49;15.68;;;2.25;;
26965;SDS011;14522;52.068;4.414;2024-02-21T03:21:16;12.18;;;2.45;;
26965;SDS011;14522;52.068;4.414;2024-02-21T03:23:42;10.65;;;1.95;;
26965;SDS011;14522;52.068;4.414;2024-02-21T03:26:09;13.40;;;1.92;;
26965;SDS011;14522;52.068;4.414;2024-02-21T03:28:35;13.63;;;2.30;;
26965;SDS011;14522;52.068;4.414;2024-02-21T03:31:02;13.23;;;2.00;;
26965;SDS011;14522;52.068;4.414;2024-02-21T03:33:28;11.75;;;2.38;;
26965;SDS011;14522;52.068;4.414;2024-02-21T03:35:55;12.85;;;2.08;;
26965;SDS011;14522;52.068;4.414;2024-02-21T03:38:21;14.15;;;2.10;;
26965;SDS011;14522;52.068;4.414;2024-02-21T03:40:47;19.80;;;2.22;;
26965;SDS011;14522;52.068;4.414;2024-02-21T03:43:14;7.97;;;1.73;;
26965;SDS011;14522;52.068;4.414;2024-02-21T03:45:41;10.65;;;2.05;;
26965;SDS011;14522;52.068;4.414;2024-02-21T03:48:07;12.65;;;2.75;;
26965;SDS011;14522;52.068;4.414;2024-02-21T03:50:34;10.90;;;2.17;;
26965;SDS011;14522;52.068;4.414;2024-02-21T03:53:00;9.20;;;2.03;;
26965;SDS011;14522;52.068;4.414;2024-02-21T03:55:27;16.02;;;2.95;;
26965;SDS011;14522;52.068;4.414;2024-02-21T03:57:53;7.45;;;1.42;;
26965;SDS011;14522;52.068;4.414;2024-02-21T04:00:20;12.52;;;2.15;;
26965;SDS011;14522;52.068;4.414;2024-02-21T04:02:46;12.18;;;2.10;;
26965;SDS011;14522;52.068;4.414;2024-02-21T04:05:15;10.98;;;2.13;;
26965;SDS011;14522;52.068;4.414;2024-02-21T04:07:42;8.88;;;1.75;;
26965;SDS011;14522;52.068;4.414;2024-02-21T04:10:09;8.80;;;2.53;;
26965;SDS011;14522;52.068;4.414;2024-02-21T04:12:35;8.05;;;1.88;;
26965;SDS011;14522;52.068;4.414;2024-02-21T04:15:02;12.32;;;2.63;;
26965;SDS011;14522;52.068;4.414;2024-02-21T04:17:28;12.35;;;2.00;;
26965;SDS011;14522;52.068;4.414;2024-02-21T04:20:02;12.35;;;2.15;;
26965;SDS011;14522;52.068;4.414;2024-02-21T04:22:31;16.58;;;2.20;;
26965;SDS011;14522;52.068;4.414;2024-02-21T04:25:01;10.55;;;2.53;;
26965;SDS011;14522;52.068;4.414;2024-02-21T04:27:27;15.52;;;2.65;;
26965;SDS011;14522;52.068;4.414;2024-02-21T04:29:54;13.68;;;2.00;;
26965;SDS011;14522;52.068;4.414;2024-02-21T04:32:20;7.32;;;2.05;;
26965;SDS011;14522;52.068;4.414;2024-02-21T04:34:46;16.13;;;2.35;;
26965;SDS011;14522;52.068;4.414;2024-02-21T04:37:13;7.10;;;2.30;;
26965;SDS011;14522;52.068;4.414;2024-02-21T04:39:40;11.05;;;2.72;;
26965;SDS011;14522;52.068;4.414;2024-02-21T04:42:06;10.40;;;2.45;;
26965;SDS011;14522;52.068;4.414;2024-02-21T04:44:32;10.82;;;2.30;;
26965;SDS011;14522;52.068;4.414;2024-02-21T04:46:59;11.13;;;2.70;;
26965;SDS011;14522;52.068;4.414;2024-02-21T04:49:25;6.10;;;2.35;;
26965;SDS011;14522;52.068;4.414;2024-02-21T04:51:52;10.55;;;2.10;;
26965;SDS011;14522;52.068;4.414;2024-02-21T04:54:18;9.25;;;2.08;;
26965;SDS011;14522;52.068;4.414;2024-02-21T04:56:44;7.88;;;1.98;;
26965;SDS011;14522;52.068;4.414;2024-02-21T04:59:11;11.13;;;2.72;;
26965;SDS011;14522;52.068;4.414;2024-02-21T05:01:37;13.68;;;3.05;;
26965;SDS011;14522;52.068;4.414;2024-02-21T05:04:04;8.65;;;3.00;;
26965;SDS011;14522;52.068;4.414;2024-02-21T05:06:30;10.00;;;2.70;;
26965;SDS011;14522;52.068;4.414;2024-02-21T05:08:57;9.90;;;3.20;;
26965;SDS011;14522;52.068;4.414;2024-02-21T05:11:24;7.72;;;2.03;;
26965;SDS011;14522;52.068;4.414;2024-02-21T05:13:51;11.45;;;3.05;;
26965;SDS011;14522;52.068;4.414;2024-02-21T05:16:17;8.63;;;3.17;;
26965;SDS011;14522;52.068;4.414;2024-02-21T05:18:45;6.63;;;3.20;;
26965;SDS011;14522;52.068;4.414;2024-02-21T05:21:12;6.80;;;2.58;;
26965;SDS011;14522;52.068;4.414;2024-02-21T05:23:39;9.80;;;2.90;;
26965;SDS011;14522;52.068;4.414;2024-02-21T05:26:06;5.38;;;2.33;;
26965;SDS011;14522;52.068;4.414;2024-02-21T05:28:32;8.52;;;2.53;;
26965;SDS011;14522;52.068;4.414;2024-02-21T05:30:59;3.92;;;2.20;;
26965;SDS011;14522;52.068;4.414;2024-02-21T05:33:25;9.25;;;2.55;;
26965;SDS011;14522;52.068;4.414;2024-02-21T05:35:52;9.63;;;3.17;;
26965;SDS011;14522;52.068;4.414;2024-02-21T05:38:18;9.55;;;2.80;;
26965;SDS011;14522;52.068;4.414;2024-02-21T05:40:45;7.80;;;2.60;;
26965;SDS011;14522;52.068;4.414;2024-02-21T05:43:12;4.30;;;2.60;;
26965;SDS011;14522;52.068;4.414;2024-02-21T05:45:38;6.28;;;2.40;;
26965;SDS011;14522;52.068;4.414;2024-02-21T05:48:04;8.90;;;2.90;;
26965;SDS011;14522;52.068;4.414;2024-02-21T05:50:31;6.63;;;2.45;;
26965;SDS011;14522;52.068;4.414;2024-02-21T05:52:58;6.45;;;2.50;;
26965;SDS011;14522;52.068;4.414;2024-02-21T05:55:25;13.68;;;3.20;;
26965;SDS011;14522;52.068;4.414;2024-02-21T05:57:53;6.72;;;2.53;;
26965;SDS011;14522;52.068;4.414;2024-02-21T06:00:19;7.68;;;2.75;;
26965;SDS011;14522;52.068;4.414;2024-02-21T06:02:46;7.63;;;3.05;;
26965;SDS011;14522;52.068;4.414;2024-02-21T06:05:12;8.82;;;3.38;;
26965;SDS011;14522;52.068;4.414;2024-02-21T06:07:39;5.97;;;3.22;;
26965;SDS011;14522;52.068;4.414;2024-02-21T06:10:06;8.93;;;3.83;;
26965;SDS011;14522;52.068;4.414;2024-02-21T06:12:33;7.50;;;2.63;;
26965;SDS011;14522;52.068;4.414;2024-02-21T06:15:00;5.70;;;3.40;;
26965;SDS011;14522;52.068;4.414;2024-02-21T06:17:26;8.93;;;3.50;;
26965;SDS011;14522;52.068;4.414;2024-02-21T06:19:53;9.32;;;3.92;;
26965;SDS011;14522;52.068;4.414;2024-02-21T06:22:19;10.88;;;3.58;;
26965;SDS011;14522;52.068;4.414;2024-02-21T06:24:46;10.48;;;4.10;;
26965;SDS011;14522;52.068;4.414;2024-02-21T06:27:12;10.32;;;4.15;;
26965;SDS011;14522;52.068;4.414;2024-02-21T06:29:40;13.07;;;4.40;;
26965;SDS011;14522;52.068;4.414;2024-02-21T06:32:07;12.43;;;3.92;;
26965;SDS011;14522;52.068;4.414;2024-02-21T06:34:33;5.97;;;3.63;;
26965;SDS011;14522;52.068;4.414;2024-02-21T06:37:02;7.47;;;3.58;;
26965;SDS011;14522;52.068;4.414;2024-02-21T06:39:29;9.68;;;4.53;;
26965;SDS011;14522;52.068;4.414;2024-02-21T06:41:55;10.10;;;4.75;;
26965;SDS011;14522;52.068;4.414;2024-02-21T06:44:27;18.20;;;4.93;;
26965;SDS011;14522;52.068;4.414;2024-02-21T06:46:54;13.82;;;5.13;;
26965;SDS011;14522;52.068;4.414;2024-02-21T06:49:21;9.05;;;4.53;;
26965;SDS011;14522;52.068;4.414;2024-02-21T06:51:48;8.93;;;3.65;;
26965;SDS011;14522;52.068;4.414;2024-02-21T06:54:14;9.70;;;4.55;;
26965;SDS011;14522;52.068;4.414;2024-02-21T06:56:40;10.80;;;4.40;;
26965;SDS011;14522;52.068;4.414;2024-02-21T06:59:07;10.07;;;4.80;;
26965;SDS011;14522;52.068;4.414;2024-02-21T07:01:33;15.80;;;4.85;;
26965;SDS011;14522;52.068;4.414;2024-02-21T07:04:00;13.18;;;5.75;;
26965;SDS011;14522;52.068;4.414;2024-02-21T07:06:26;10.02;;;4.38;;
26965;SDS011;14522;52.068;4.414;2024-02-21T07:08:53;11.43;;;5.07;;
26965;SDS011;14522;52.068;4.414;2024-02-21T07:11:19;9.13;;;4.70;;
26965;SDS011;14522;52.068;4.414;2024-02-21T07:13:46;13.30;;;5.68;;
26965;SDS011;14522;52.068;4.414;2024-02-21T07:16:13;12.93;;;4.97;;
26965;SDS011;14522;52.068;4.414;2024-02-21T07:18:39;12.52;;;4.93;;
26965;SDS011;14522;52.068;4.414;2024-02-21T07:21:06;11.18;;;4.15;;
26965;SDS011;14522;52.068;4.414;2024-02-21T07:23:32;9.13;;;4.07;;
26965;SDS011;14522;52.068;4.414;2024-02-21T07:25:59;14.50;;;5.38;;
26965;SDS011;14522;52.068;4.414;2024-02-21T07:28:26;18.27;;;5.28;;
26965;SDS011;14522;52.068;4.414;2024-02-21T07:30:52;10.73;;;4.95;;
26965;SDS011;14522;52.068;4.414;2024-02-21T07:33:19;14.50;;;5.07;;
26965;SDS011;14522;52.068;4.414;2024-02-21T07:35:45;13.57;;;4.97;;
26965;SDS011;14522;52.068;4.414;2024-02-21T07:38:12;9.10;;;4.53;;
26965;SDS011;14522;52.068;4.414;2024-02-21T07:40:39;12.10;;;4.43;;
26965;SDS011;14522;52.068;4.414;2024-02-21T07:43:06;10.05;;;5.47;;
26965;SDS011;14522;52.068;4.414;2024-02-21T07:45:32;11.52;;;4.53;;
26965;SDS011;14522;52.068;4.414;2024-02-21T07:47:59;15.00;;;5.43;;
26965;SDS011;14522;52.068;4.414;2024-02-21T07:50:26;14.88;;;5.78;;
26965;SDS011;14522;52.068;4.414;2024-02-21T07:52:52;13.35;;;5.68;;
26965;SDS011;14522;52.068;4.414;2024-02-21T07:55:18;12.60;;;5.95;;
26965;SDS011;14522;52.068;4.414;2024-02-21T07:57:45;10.57;;;6.00;;
26965;SDS011;14522;52.068;4.414;2024-02-21T08:00:12;15.27;;;6.22;;
26965;SDS011;14522;52.068;4.414;2024-02-21T08:02:46;13.70;;;6.05;;
26965;SDS011;14522;52.068;4.414;2024-02-21T08:05:12;9.82;;;4.82;;
26965;SDS011;14522;52.068;4.414;2024-02-21T08:07:39;6.72;;;4.38;;
26965;SDS011;14522;52.068;4.414;2024-02-21T08:10:06;10.23;;;5.15;;
26965;SDS011;14522;52.068;4.414;2024-02-21T08:12:35;12.63;;;5.90;;
26965;SDS011;14522;52.068;4.414;2024-02-21T08:15:02;12.52;;;6.30;;
26965;SDS011;14522;52.068;4.414;2024-02-21T08:17:30;10.85;;;5.22;;
26965;SDS011;14522;52.068;4.414;2024-02-21T08:19:56;10.27;;;4.75;;
26965;SDS011;14522;52.068;4.414;2024-02-21T08:22:23;12.80;;;6.68;;
26965;SDS011;14522;52.068;4.414;2024-02-21T08:24:52;9.70;;;3.25;;
26965;SDS011;14522;52.068;4.414;2024-02-21T08:27:18;10.93;;;5.13;;
26965;SDS011;14522;52.068;4.414;2024-02-21T08:29:45;11.95;;;5.95;;
26965;SDS011;14522;52.068;4.414;2024-02-21T08:32:11;15.23;;;5.93;;
26965;SDS011;14522;52.068;4.414;2024-02-21T08:34:38;12.70;;;6.07;;
26965;SDS011;14522;52.068;4.414;2024-02-21T08:37:04;15.15;;;6.32;;
26965;SDS011;14522;52.068;4.414;2024-02-21T08:39:30;11.10;;;5.57;;
26965;SDS011;14522;52.068;4.414;2024-02-21T08:41:57;8.93;;;5.53;;
26965;SDS011;14522;52.068;4.414;2024-02-21T08:44:23;8.48;;;5.45;;
26965;SDS011;14522;52.068;4.414;2024-02-21T08:46:54;14.50;;;6.15;;
26965;SDS011;14522;52.068;4.414;2024-02-21T08:49:20;12.00;;;5.88;;
26965;SDS011;14522;52.068;4.414;2024-02-21T08:51:47;10.50;;;5.72;;
26965;SDS011;14522;52.068;4.414;2024-02-21T08:54:14;10.75;;;5.18;;
26965;SDS011;14522;52.068;4.414;2024-02-21T08:56:40;8.70;;;5.43;;
26965;SDS011;14522;52.068;4.414;2024-02-21T08:59:06;13.82;;;5.97;;
26965;SDS011;14522;52.068;4.414;2024-02-21T09:01:33;12.70;;;6.00;;
26965;SDS011;14522;52.068;4.414;2024-02-21T09:04:01;12.85;;;5.25;;
26965;SDS011;14522;52.068;4.414;2024-02-21T09:06:29;6.93;;;3.50;;
26965;SDS011;14522;52.068;4.414;2024-02-21T09:08:56;9.02;;;5.20;;
26965;SDS011;14522;52.068;4.414;2024-02-21T09:11:23;11.52;;;5.60;;
26965;SDS011;14522;52.068;4.414;2024-02-21T09:13:50;7.18;;;4.00;;
26965;SDS011;14522;52.068;4.414;2024-02-21T09:16:16;9.18;;;5.40;;
26965;SDS011;14522;52.068;4.414;2024-02-21T09:18:42;10.60;;;5.43;;
26965;SDS011;14522;52.068;4.414;2024-02-21T09:21:09;9.27;;;4.35;;
26965;SDS011;14522;52.068;4.414;2024-02-21T09:23:35;12.10;;;5.43;;
26965;SDS011;14522;52.068;4.414;2024-02-21T09:26:02;10.38;;;4.55;;
26965;SDS011;14522;52.068;4.414;2024-02-21T09:28:30;10.63;;;5.35;;
26965;SDS011;14522;52.068;4.414;2024-02-21T09:30:57;12.40;;;5.82;;
26965;SDS011;14522;52.068;4.414;2024-02-21T09:33:24;4.82;;;2.80;;
26965;SDS011;14522;52.068;4.414;2024-02-21T09:35:58;8.27;;;5.22;;
26965;SDS011;14522;52.068;4.414;2024-02-21T09:38:24;9.65;;;4.90;;
26965;SDS011;14522;52.068;4.414;2024-02-21T09:40:54;10.73;;;5.28;;
26965;SDS011;14522;52.068;4.414;2024-02-21T09:43:25;10.93;;;5.70;;
26965;SDS011;14522;52.068;4.414;2024-02-21T09:45:51;12.32;;;5.35;;
26965;SDS011;14522;52.068;4.414;2024-02-21T09:51:01;10.52;;;4.97;;
26965;SDS011;14522;52.068;4.414;2024-02-21T09:53:28;8.32;;;3.97;;
26965;SDS011;14522;52.068;4.414;2024-02-21T09:55:57;10.25;;;5.10;;
26965;SDS011;14522;52.068;4.414;2024-02-21T09:58:23;11.25;;;4.72;;
26965;SDS011;14522;52.068;4.414;2024-02-21T10:00:53;10.82;;;5.28;;
26965;SDS011;14522;52.068;4.414;2024-02-21T10:03:20;10.77;;;4.50;;
26965;SDS011;14522;52.068;4.414;2024-02-21T10:05:49;8.93;;;4.60;;
26965;SDS011;14522;52.068;4.414;2024-02-21T10:08:17;10.32;;;4.30;;
26965;SDS011;14522;52.068;4.414;2024-02-21T10:10:44;7.57;;;4.50;;
26965;SDS011;14522;52.068;4.414;2024-02-21T10:13:11;9.55;;;4.63;;
26965;SDS011;14522;52.068;4.414;2024-02-21T10:15:37;13.57;;;5.28;;
26965;SDS011;14522;52.068;4.414;2024-02-21T10:18:04;9.20;;;5.10;;
26965;SDS011;14522;52.068;4.414;2024-02-21T10:20:32;11.40;;;5.00;;
26965;SDS011;14522;52.068;4.414;2024-02-21T10:23:03;11.82;;;6.20;;
26965;SDS011;14522;52.068;4.414;2024-02-21T10:25:34;8.10;;;5.07;;
26965;SDS011;14522;52.068;4.414;2024-02-21T10:28:02;8.85;;;4.95;;
26965;SDS011;14522;52.068;4.414;2024-02-21T10:30:29;12.35;;;5.30;;
26965;SDS011;14522;52.068;4.414;2024-02-21T10:32:56;9.27;;;5.32;;
26965;SDS011;14522;52.068;4.414;2024-02-21T10:35:27;5.50;;;4.38;;
26965;SDS011;14522;52.068;4.414;2024-02-21T10:37:55;9.27;;;5.47;;
26965;SDS011;14522;52.068;4.414;2024-02-21T10:40:26;8.02;;;5.13;;
26965;SDS011;14522;52.068;4.414;2024-02-21T10:42:56;7.80;;;4.85;;
26965;SDS011;14522;52.068;4.414;2024-02-21T10:45:22;9.43;;;5.10;;
26965;SDS011;14522;52.068;4.414;2024-02-21T10:47:51;7.97;;;4.90;;
26965;SDS011;14522;52.068;4.414;2024-02-21T10:50:21;10.98;;;5.30;;
26965;SDS011;14522;52.068;4.414;2024-02-21T10:52:57;10.85;;;4.93;;
26965;SDS011;14522;52.068;4.414;2024-02-21T10:55:38;10.93;;;5.88;;
26965;SDS011;14522;52.068;4.414;2024-02-21T10:58:05;11.38;;;5.35;;
26965;SDS011;14522;52.068;4.414;2024-02-21T11:00:32;8.55;;;5.05;;
26965;SDS011;14522;52.068;4.414;2024-02-21T11:02:59;8.23;;;5.30;;
26965;SDS011;14522;52.068;4.414;2024-02-21T11:05:27;7.28;;;4.65;;
26965;SDS011;14522;52.068;4.414;2024-02-21T11:07:54;10.80;;;5.15;;
26965;SDS011;14522;52.068;4.414;2024-02-21T11:10:24;10.25;;;5.95;;
26965;SDS011;14522;52.068;4.414;2024-02-21T11:13:07;12.90;;;5.22;;
26965;SDS011;14522;52.068;4.414;2024-02-21T11:15:34;9.07;;;4.53;;
26965;SDS011;14522;52.068;4.414;2024-02-21T11:18:01;9.73;;;5.45;;
26965;SDS011;14522;52.068;4.414;2024-02-21T11:20:33;9.23;;;5.95;;
26965;SDS011;14522;52.068;4.414;2024-02-21T11:23:00;8.70;;;5.28;;
26965;SDS011;14522;52.068;4.414;2024-02-21T11:25:30;14.23;;;6.20;;
26965;SDS011;14522;52.068;4.414;2024-02-21T11:27:59;9.00;;;4.88;;
26965;SDS011;14522;52.068;4.414;2024-02-21T11:30:31;10.05;;;5.40;;
26965;SDS011;14522;52.068;4.414;2024-02-21T11:35:35;8.52;;;5.20;;
26965;SDS011;14522;52.068;4.414;2024-02-21T11:38:13;9.63;;;5.18;;
26965;SDS011;14522;52.068;4.414;2024-02-21T11:40:44;10.65;;;4.70;;
26965;SDS011;14522;52.068;4.414;2024-02-21T11:43:11;8.18;;;5.10;;
26965;SDS011;14522;52.068;4.414;2024-02-21T11:45:37;7.10;;;4.60;;
26965;SDS011;14522;52.068;4.414;2024-02-21T11:48:06;5.53;;;3.97;;
26965;SDS011;14522;52.068;4.414;2024-02-21T11:50:34;12.43;;;5.32;;
26965;SDS011;14522;52.068;4.414;2024-02-21T11:53:00;8.65;;;4.88;;
26965;SDS011;14522;52.068;4.414;2024-02-21T11:55:27;9.13;;;4.65;;
26965;SDS011;14522;52.068;4.414;2024-02-21T11:57:54;8.13;;;4.65;;
26965;SDS011;14522;52.068;4.414;2024-02-21T12:00:20;6.70;;;4.40;;
26965;SDS011;14522;52.068;4.414;2024-02-21T12:02:47;8.13;;;4.38;;
26965;SDS011;14522;52.068;4.414;2024-02-21T12:05:14;14.75;;;4.93;;
26965;SDS011;14522;52.068;4.414;2024-02-21T12:07:40;10.15;;;3.53;;
26965;SDS011;14522;52.068;4.414;2024-02-21T12:10:10;6.55;;;3.78;;
26965;SDS011;14522;52.068;4.414;2024-02-21T12:12:37;6.72;;;3.53;;
26965;SDS011;14522;52.068;4.414;2024-02-21T12:15:05;9.77;;;4.13;;
26965;SDS011;14522;52.068;4.414;2024-02-21T12:17:35;6.15;;;4.15;;
26965;SDS011;14522;52.068;4.414;2024-02-21T12:20:05;7.55;;;3.55;;
26965;SDS011;14522;52.068;4.414;2024-02-21T12:22:36;9.20;;;4.07;;
26965;SDS011;14522;52.068;4.414;2024-02-21T12:25:04;5.63;;;3.53;;
26965;SDS011;14522;52.068;4.414;2024-02-21T12:27:30;6.18;;;3.20;;
26965;SDS011;14522;52.068;4.414;2024-02-21T12:29:57;7.57;;;3.83;;
26965;SDS011;14522;52.068;4.414;2024-02-21T12:32:23;7.82;;;3.83;;
26965;SDS011;14522;52.068;4.414;2024-02-21T12:34:50;7.80;;;4.00;;
26965;SDS011;14522;52.068;4.414;2024-02-21T12:37:21;4.07;;;2.53;;
26965;SDS011;14522;52.068;4.414;2024-02-21T12:39:48;10.27;;;3.33;;
26965;SDS011;14522;52.068;4.414;2024-02-21T12:42:14;6.47;;;3.92;;
26965;SDS011;14522;52.068;4.414;2024-02-21T12:44:41;7.78;;;3.15;;
26965;SDS011;14522;52.068;4.414;2024-02-21T12:47:08;7.75;;;3.40;;
26965;SDS011;14522;52.068;4.414;2024-02-21T12:49:35;8.00;;;3.75;;
26965;SDS011;14522;52.068;4.414;2024-02-21T12:52:02;6.93;;;3.92;;
26965;SDS011;14522;52.068;4.414;2024-02-21T12:54:29;4.30;;;3.20;;
26965;SDS011;14522;52.068;4.414;2024-02-21T12:56:57;9.55;;;3.90;;
26965;SDS011;14522;52.068;4.414;2024-02-21T12:59:23;9.05;;;3.45;;
26965;SDS011;14522;52.068;4.414;2024-02-21T13:01:50;5.88;;;3.35;;
26965;SDS011;14522;52.068;4.414;2024-02-21T13:04:16;7.32;;;3.72;;
26965;SDS011;14522;52.068;4.414;2024-02-21T13:06:43;6.55;;;3.25;;
26965;SDS011;14522;52.068;4.414;2024-02-21T13:09:10;8.35;;;3.97;;
26965;SDS011;14522;52.068;4.414;2024-02-21T13:11:37;6.15;;;3.53;;
26965;SDS011;14522;52.068;4.414;2024-02-21T13:14:04;9.30;;;4.13;;
26965;SDS011;14522;52.068;4.414;2024-02-21T13:16:30;6.22;;;4.05;;
26965;SDS011;14522;52.068;4.414;2024-02-21T13:18:57;6.32;;;3.08;;
26965;SDS011;14522;52.068;4.414;2024-02-21T13:21:23;6.88;;;3.50;;
26965;SDS011;14522;52.068;4.414;2024-02-21T13:23:50;6.68;;;3.80;;
26965;SDS011;14522;52.068;4.414;2024-02-21T13:26:16;9.43;;;4.47;;
26965;SDS011;14522;52.068;4.414;2024-02-21T13:28:43;10.23;;;4.35;;
26965;SDS011;14522;52.068;4.414;2024-02-21T13:31:11;6.35;;;3.70;;
26965;SDS011;14522;52.068;4.414;2024-02-21T13:33:38;6.18;;;3.40;;
26965;SDS011;14522;52.068;4.414;2024-02-21T13:36:04;9.23;;;3.53;;
26965;SDS011;14522;52.068;4.414;2024-02-21T13:38:31;8.32;;;4.45;;
26965;SDS011;14522;52.068;4.414;2024-02-21T13:40:57;6.10;;;3.67;;
26965;SDS011;14522;52.068;4.414;2024-02-21T13:43:26;8.40;;;5.00;;
26965;SDS011;14522;52.068;4.414;2024-02-21T13:45:57;6.03;;;3.75;;
26965;SDS011;14522;52.068;4.414;2024-02-21T13:48:24;4.85;;;2.35;;
26965;SDS011;14522;52.068;4.414;2024-02-21T13:50:51;8.07;;;4.20;;
26965;SDS011;14522;52.068;4.414;2024-02-21T13:53:17;11.07;;;5.10;;
26965;SDS011;14522;52.068;4.414;2024-02-21T13:55:45;6.63;;;4.80;;
26965;SDS011;14522;52.068;4.414;2024-02-21T13:58:11;10.15;;;4.50;;
26965;SDS011;14522;52.068;4.414;2024-02-21T14:00:38;7.45;;;3.17;;
26965;SDS011;14522;52.068;4.414;2024-02-21T14:03:04;7.53;;;4.25;;
26965;SDS011;14522;52.068;4.414;2024-02-21T14:05:31;9.10;;;4.32;;
26965;SDS011;14522;52.068;4.414;2024-02-21T14:07:57;5.65;;;3.10;;
26965;SDS011;14522;52.068;4.414;2024-02-21T14:10:24;9.30;;;3.53;;
26965;SDS011;14522;52.068;4.414;2024-02-21T14:12:51;10.88;;;4.22;;
26965;SDS011;14522;52.068;4.414;2024-02-21T14:15:17;9.40;;;3.08;;
26965;SDS011;14522;52.068;4.414;2024-02-21T14:17:43;6.05;;;3.40;;
26965;SDS011;14522;52.068;4.414;2024-02-21T14:20:10;6.38;;;2.28;;
26965;SDS011;14522;52.068;4.414;2024-02-21T14:22:41;4.97;;;2.80;;
26965;SDS011;14522;52.068;4.414;2024-02-21T14:25:08;5.90;;;3.10;;
26965;SDS011;14522;52.068;4.414;2024-02-21T14:27:34;5.88;;;3.10;;
26965;SDS011;14522;52.068;4.414;2024-02-21T14:30:03;5.35;;;2.65;;
26965;SDS011;14522;52.068;4.414;2024-02-21T14:32:29;6.10;;;2.40;;
26965;SDS011;14522;52.068;4.414;2024-02-21T14:34:56;5.45;;;2.38;;
26965;SDS011;14522;52.068;4.414;2024-02-21T14:37:22;9.63;;;3.20;;
26965;SDS011;14522;52.068;4.414;2024-02-21T14:39:49;3.47;;;2.13;;
26965;SDS011;14522;52.068;4.414;2024-02-21T14:42:15;6.50;;;3.00;;
26965;SDS011;14522;52.068;4.414;2024-02-21T14:44:43;7.22;;;2.92;;